sensor_id;sensor_type;location;lat;lon;timestamp;temperature;humidity
21189;DHT22;39071;52.420;20.896;2023-04-02T00:07:49;7.40;1.00
21189;DHT22;39071;52.420;20.896;2023-04-02T00:10:35;7.30;1.00
21189;DHT22;39071;52.420;20.896;2023-04-02T00:15:34;7.40;99.90
21189;DHT22;39071;52.420;20.896;2023-04-02T00:18:00;7.30;99.90
21189;DHT22;39071;52.420;20.896;2023-04-02T00:20:27;7.30;1.00
21189;DHT22;39071;52.420;20.896;2023-04-02T00:22:55;7.20;1.00
21189;DHT22;39071;52.420;20.896;2023-04-02T00:25:22;7.20;99.90
21189;DHT22;39071;52.420;20.896;2023-04-02T00:27:51;7.20;99.90
21189;DHT22;39071;52.420;20.896;2023-04-02T00:30:17;7.20;31.80
21189;DHT22;39071;52.420;20.896;2023-04-02T00:32:42;7.20;1.00
21189;DHT22;39071;52.420;20.896;2023-04-02T00:35:23;7.10;1.00
21189;DHT22;39071;52.420;20.896;2023-04-02T00:37:50;7.10;99.90
21189;DHT22;39071;52.420;20.896;2023-04-02T00:40:28;7.20;1.00
21189;DHT22;39071;52.420;20.896;2023-04-02T00:42:58;7.10;99.90
21189;DHT22;39071;52.420;20.896;2023-04-02T00:45:25;7.10;1.00
21189;DHT22;39071;52.420;20.896;2023-04-02T00:47:55;7.10;1.00
21189;DHT22;39071;52.420;20.896;2023-04-02T00:50:35;7.20;99.90
21189;DHT22;39071;52.420;20.896;2023-04-02T00:53:10;7.20;1.00
21189;DHT22;39071;52.420;20.896;2023-04-02T00:55:39;7.20;1.00
21189;DHT22;39071;52.420;20.896;2023-04-02T00:58:29;7.10;92.10
21189;DHT22;39071;52.420;20.896;2023-04-02T01:00:57;7.20;1.00
21189;DHT22;39071;52.420;20.896;2023-04-02T01:03:33;7.30;99.90
21189;DHT22;39071;52.420;20.896;2023-04-02T01:06:09;7.10;1.00
21189;DHT22;39071;52.420;20.896;2023-04-02T01:11:36;7.10;99.90
21189;DHT22;39071;52.420;20.896;2023-04-02T01:14:21;7.10;3.10
21189;DHT22;39071;52.420;20.896;2023-04-02T01:17:11;7.10;1.00
21189;DHT22;39071;52.420;20.896;2023-04-02T01:22:39;7.00;1.00
21189;DHT22;39071;52.420;20.896;2023-04-02T01:25:25;7.00;1.00
21189;DHT22;39071;52.420;20.896;2023-04-02T01:30:35;6.90;1.00
21189;DHT22;39071;52.420;20.896;2023-04-02T01:33:02;6.90;1.00
21189;DHT22;39071;52.420;20.896;2023-04-02T01:35:32;6.90;99.90
21189;DHT22;39071;52.420;20.896;2023-04-02T01:38:07;6.90;99.90
21189;DHT22;39071;52.420;20.896;2023-04-02T01:40:44;6.80;1.00
21189;DHT22;39071;52.420;20.896;2023-04-02T01:45:43;6.80;1.00
21189;DHT22;39071;52.420;20.896;2023-04-02T01:48:23;6.80;1.00
21189;DHT22;39071;52.420;20.896;2023-04-02T01:50:52;6.80;1.00
21189;DHT22;39071;52.420;20.896;2023-04-02T01:53:21;6.80;1.00
21189;DHT22;39071;52.420;20.896;2023-04-02T01:55:52;6.70;1.00
21189;DHT22;39071;52.420;20.896;2023-04-02T01:58:21;6.70;1.00
21189;DHT22;39071;52.420;20.896;2023-04-02T02:01:20;6.60;1.00
21189;DHT22;39071;52.420;20.896;2023-04-02T02:03:48;6.70;44.70
21189;DHT22;39071;52.420;20.896;2023-04-02T02:06:16;6.60;1.00
21189;DHT22;39071;52.420;20.896;2023-04-02T02:08:53;6.60;99.90
21189;DHT22;39071;52.420;20.896;2023-04-02T02:11:24;6.60;1.00
21189;DHT22;39071;52.420;20.896;2023-04-02T02:13:55;6.60;1.00
21189;DHT22;39071;52.420;20.896;2023-04-02T02:16:22;6.60;99.90
21189;DHT22;39071;52.420;20.896;2023-04-02T02:18:51;6.60;99.90
21189;DHT22;39071;52.420;20.896;2023-04-02T02:24:05;6.60;1.00
21189;DHT22;39071;52.420;20.896;2023-04-02T02:26:32;6.60;3.50
21189;DHT22;39071;52.420;20.896;2023-04-02T02:29:01;6.60;1.00
21189;DHT22;39071;52.420;20.896;2023-04-02T02:31:31;6.60;99.90
21189;DHT22;39071;52.420;20.896;2023-04-02T02:34:15;6.50;1.00
21189;DHT22;39071;52.420;20.896;2023-04-02T02:36:49;6.50;99.90
21189;DHT22;39071;52.420;20.896;2023-04-02T02:39:24;6.60;1.00
21189;DHT22;39071;52.420;20.896;2023-04-02T02:44:36;6.50;1.00
21189;DHT22;39071;52.420;20.896;2023-04-02T02:47:14;6.50;1.00
21189;DHT22;39071;52.420;20.896;2023-04-02T02:49:52;6.50;1.00
21189;DHT22;39071;52.420;20.896;2023-04-02T02:52:40;6.50;1.00
21189;DHT22;39071;52.420;20.896;2023-04-02T02:55:13;6.60;1.00
21189;DHT22;39071;52.420;20.896;2023-04-02T02:57:46;6.50;1.00
21189;DHT22;39071;52.420;20.896;2023-04-02T03:00:14;6.50;1.00
21189;DHT22;39071;52.420;20.896;2023-04-02T03:02:43;6.60;1.00
21189;DHT22;39071;52.420;20.896;2023-04-02T03:05:15;6.50;1.00
21189;DHT22;39071;52.420;20.896;2023-04-02T03:07:42;6.40;1.00
21189;DHT22;39071;52.420;20.896;2023-04-02T03:12:55;6.20;99.90
21189;DHT22;39071;52.420;20.896;2023-04-02T03:21:19;6.10;1.00
21189;DHT22;39071;52.420;20.896;2023-04-02T03:26:55;6.00;1.00
21189;DHT22;39071;52.420;20.896;2023-04-02T03:29:32;6.00;1.00
21189;DHT22;39071;52.420;20.896;2023-04-02T03:32:04;5.90;1.00
21189;DHT22;39071;52.420;20.896;2023-04-02T03:34:36;5.90;1.00
21189;DHT22;39071;52.420;20.896;2023-04-02T03:37:10;5.90;1.00
21189;DHT22;39071;52.420;20.896;2023-04-02T03:39:43;5.80;1.00
21189;DHT22;39071;52.420;20.896;2023-04-02T03:42:24;5.80;1.00
21189;DHT22;39071;52.420;20.896;2023-04-02T03:45:02;5.80;1.00
21189;DHT22;39071;52.420;20.896;2023-04-02T03:47:37;5.90;1.00
21189;DHT22;39071;52.420;20.896;2023-04-02T03:50:13;5.90;99.90
21189;DHT22;39071;52.420;20.896;2023-04-02T03:52:42;5.90;99.90
21189;DHT22;39071;52.420;20.896;2023-04-02T03:55:30;6.00;99.90
21189;DHT22;39071;52.420;20.896;2023-04-02T03:58:08;6.10;99.90
21189;DHT22;39071;52.420;20.896;2023-04-02T04:08:44;6.00;1.00
21189;DHT22;39071;52.420;20.896;2023-04-02T04:11:17;5.90;1.00
21189;DHT22;39071;52.420;20.896;2023-04-02T04:24:38;5.80;99.90
21189;DHT22;39071;52.420;20.896;2023-04-02T04:27:15;5.80;99.90
21189;DHT22;39071;52.420;20.896;2023-04-02T04:32:31;5.80;86.80
21189;DHT22;39071;52.420;20.896;2023-04-02T04:35:50;5.80;99.90
21189;DHT22;39071;52.420;20.896;2023-04-02T04:37:57;5.70;28.80
21189;DHT22;39071;52.420;20.896;2023-04-02T04:40:36;5.70;1.00
21189;DHT22;39071;52.420;20.896;2023-04-02T04:43:06;5.70;1.00
21189;DHT22;39071;52.420;20.896;2023-04-02T04:45:49;5.70;1.00
21189;DHT22;39071;52.420;20.896;2023-04-02T04:48:45;5.70;1.00
21189;DHT22;39071;52.420;20.896;2023-04-02T04:51:27;5.70;1.00
21189;DHT22;39071;52.420;20.896;2023-04-02T04:53:54;5.60;99.90
21189;DHT22;39071;52.420;20.896;2023-04-02T04:56:24;5.60;99.90
21189;DHT22;39071;52.420;20.896;2023-04-02T04:59:30;5.50;99.90
21189;DHT22;39071;52.420;20.896;2023-04-02T05:02:13;5.50;99.90
21189;DHT22;39071;52.420;20.896;2023-04-02T05:04:43;5.40;1.00
21189;DHT22;39071;52.420;20.896;2023-04-02T05:07:19;5.40;99.90
21189;DHT22;39071;52.420;20.896;2023-04-02T05:12:58;5.40;1.00
21189;DHT22;39071;52.420;20.896;2023-04-02T05:15:34;5.40;99.90
21189;DHT22;39071;52.420;20.896;2023-04-02T05:18:14;5.40;99.90
21189;DHT22;39071;52.420;20.896;2023-04-02T05:21:07;5.40;1.00
21189;DHT22;39071;52.420;20.896;2023-04-02T05:23:50;5.40;1.00
21189;DHT22;39071;52.420;20.896;2023-04-02T05:26:44;5.40;72.60
21189;DHT22;39071;52.420;20.896;2023-04-02T05:29:19;5.40;1.00
21189;DHT22;39071;52.420;20.896;2023-04-02T05:34:28;5.40;99.90
21189;DHT22;39071;52.420;20.896;2023-04-02T05:36:55;5.30;99.90
21189;DHT22;39071;52.420;20.896;2023-04-02T05:39:22;5.30;99.90
21189;DHT22;39071;52.420;20.896;2023-04-02T05:42:01;5.40;99.90
21189;DHT22;39071;52.420;20.896;2023-04-02T05:44:30;5.40;1.00
21189;DHT22;39071;52.420;20.896;2023-04-02T05:47:00;5.50;1.00
21189;DHT22;39071;52.420;20.896;2023-04-02T05:49:42;5.50;99.90
21189;DHT22;39071;52.420;20.896;2023-04-02T05:52:19;5.40;99.90
21189;DHT22;39071;52.420;20.896;2023-04-02T05:57:35;5.50;1.00
21189;DHT22;39071;52.420;20.896;2023-04-02T06:00:07;5.50;99.90
21189;DHT22;39071;52.420;20.896;2023-04-02T06:02:39;5.50;1.00
21189;DHT22;39071;52.420;20.896;2023-04-02T06:05:23;5.40;1.00
21189;DHT22;39071;52.420;20.896;2023-04-02T06:08:06;5.40;99.90
21189;DHT22;39071;52.420;20.896;2023-04-02T06:10:36;5.20;99.90
21189;DHT22;39071;52.420;20.896;2023-04-02T06:13:11;5.10;1.00
21189;DHT22;39071;52.420;20.896;2023-04-02T06:15:40;5.10;1.00
21189;DHT22;39071;52.420;20.896;2023-04-02T06:18:19;5.10;99.90
21189;DHT22;39071;52.420;20.896;2023-04-02T06:20:45;5.10;99.90
21189;DHT22;39071;52.420;20.896;2023-04-02T06:23:18;5.10;1.00
21189;DHT22;39071;52.420;20.896;2023-04-02T06:26:00;5.20;99.90
21189;DHT22;39071;52.420;20.896;2023-04-02T06:28:33;5.10;99.90
21189;DHT22;39071;52.420;20.896;2023-04-02T06:31:06;5.00;1.00
21189;DHT22;39071;52.420;20.896;2023-04-02T06:33:33;5.10;1.00
21189;DHT22;39071;52.420;20.896;2023-04-02T06:35:59;5.20;99.90
21189;DHT22;39071;52.420;20.896;2023-04-02T06:38:29;5.20;1.00
21189;DHT22;39071;52.420;20.896;2023-04-02T06:41:00;5.30;99.90
21189;DHT22;39071;52.420;20.896;2023-04-02T06:43:33;5.30;99.90
21189;DHT22;39071;52.420;20.896;2023-04-02T06:46:06;5.30;99.90
21189;DHT22;39071;52.420;20.896;2023-04-02T06:48:35;5.30;1.00
21189;DHT22;39071;52.420;20.896;2023-04-02T06:51:10;5.40;1.00
21189;DHT22;39071;52.420;20.896;2023-04-02T06:53:47;5.40;1.00
21189;DHT22;39071;52.420;20.896;2023-04-02T06:56:35;5.40;1.00
21189;DHT22;39071;52.420;20.896;2023-04-02T06:59:02;5.30;99.90
21189;DHT22;39071;52.420;20.896;2023-04-02T07:01:36;5.20;1.00
21189;DHT22;39071;52.420;20.896;2023-04-02T07:04:03;5.30;1.00
21189;DHT22;39071;52.420;20.896;2023-04-02T07:06:29;5.30;1.00
21189;DHT22;39071;52.420;20.896;2023-04-02T07:08:55;5.30;1.00
21189;DHT22;39071;52.420;20.896;2023-04-02T07:11:21;5.20;1.00
21189;DHT22;39071;52.420;20.896;2023-04-02T07:13:50;5.10;1.00
21189;DHT22;39071;52.420;20.896;2023-04-02T07:16:20;5.00;1.00
21189;DHT22;39071;52.420;20.896;2023-04-02T07:18:47;4.80;56.20
21189;DHT22;39071;52.420;20.896;2023-04-02T07:21:13;4.70;1.00
21189;DHT22;39071;52.420;20.896;2023-04-02T07:23:39;4.60;1.00
21189;DHT22;39071;52.420;20.896;2023-04-02T07:26:07;4.70;1.00
21189;DHT22;39071;52.420;20.896;2023-04-02T07:28:33;4.60;1.00
21189;DHT22;39071;52.420;20.896;2023-04-02T07:30:59;4.60;1.00
21189;DHT22;39071;52.420;20.896;2023-04-02T07:33:27;4.60;1.00
21189;DHT22;39071;52.420;20.896;2023-04-02T07:35:55;4.60;1.00
21189;DHT22;39071;52.420;20.896;2023-04-02T07:38:22;4.60;99.90
21189;DHT22;39071;52.420;20.896;2023-04-02T07:40:48;4.60;99.90
21189;DHT22;39071;52.420;20.896;2023-04-02T07:43:14;4.60;1.00
21189;DHT22;39071;52.420;20.896;2023-04-02T07:45:40;4.70;1.00
21189;DHT22;39071;52.420;20.896;2023-04-02T07:48:13;4.80;1.00
21189;DHT22;39071;52.420;20.896;2023-04-02T07:50:39;4.90;1.00
21189;DHT22;39071;52.420;20.896;2023-04-02T07:53:05;5.10;1.00
21189;DHT22;39071;52.420;20.896;2023-04-02T07:55:33;5.00;1.00
21189;DHT22;39071;52.420;20.896;2023-04-02T07:57:59;5.10;51.70
21189;DHT22;39071;52.420;20.896;2023-04-02T08:00:26;5.10;1.00
21189;DHT22;39071;52.420;20.896;2023-04-02T08:02:53;5.10;99.90
21189;DHT22;39071;52.420;20.896;2023-04-02T08:05:19;5.00;95.70
21189;DHT22;39071;52.420;20.896;2023-04-02T08:07:55;5.00;99.90
21189;DHT22;39071;52.420;20.896;2023-04-02T08:10:21;5.00;1.00
21189;DHT22;39071;52.420;20.896;2023-04-02T08:12:47;5.20;1.00
21189;DHT22;39071;52.420;20.896;2023-04-02T08:15:14;5.20;99.90
21189;DHT22;39071;52.420;20.896;2023-04-02T08:17:41;5.30;99.90
21189;DHT22;39071;52.420;20.896;2023-04-02T08:20:15;5.40;99.90
21189;DHT22;39071;52.420;20.896;2023-04-02T08:22:46;5.40;1.00
21189;DHT22;39071;52.420;20.896;2023-04-02T08:25:12;5.30;1.00
21189;DHT22;39071;52.420;20.896;2023-04-02T08:27:38;5.20;1.00
21189;DHT22;39071;52.420;20.896;2023-04-02T08:30:05;5.20;99.90
21189;DHT22;39071;52.420;20.896;2023-04-02T08:32:31;5.20;1.00
21189;DHT22;39071;52.420;20.896;2023-04-02T08:34:57;5.20;99.90
21189;DHT22;39071;52.420;20.896;2023-04-02T08:37:22;5.20;1.00
21189;DHT22;39071;52.420;20.896;2023-04-02T08:39:48;5.20;1.00
21189;DHT22;39071;52.420;20.896;2023-04-02T08:45:07;5.40;1.00
21189;DHT22;39071;52.420;20.896;2023-04-02T08:47:38;5.30;71.70
21189;DHT22;39071;52.420;20.896;2023-04-02T08:52:40;5.20;1.00
21189;DHT22;39071;52.420;20.896;2023-04-02T09:00:53;5.20;99.90
21189;DHT22;39071;52.420;20.896;2023-04-02T09:03:40;5.30;99.90
21189;DHT22;39071;52.420;20.896;2023-04-02T09:06:10;5.40;1.00
21189;DHT22;39071;52.420;20.896;2023-04-02T09:08:38;5.30;99.90
21189;DHT22;39071;52.420;20.896;2023-04-02T09:13:50;5.10;99.90
21189;DHT22;39071;52.420;20.896;2023-04-02T09:16:18;5.10;1.00
21189;DHT22;39071;52.420;20.896;2023-04-02T09:18:49;5.30;1.00
21189;DHT22;39071;52.420;20.896;2023-04-02T09:21:30;5.40;99.90
21189;DHT22;39071;52.420;20.896;2023-04-02T09:23:57;5.40;1.00
21189;DHT22;39071;52.420;20.896;2023-04-02T09:26:32;5.40;99.90
21189;DHT22;39071;52.420;20.896;2023-04-02T09:29:25;5.40;1.00
21189;DHT22;39071;52.420;20.896;2023-04-02T09:32:31;5.40;99.90
21189;DHT22;39071;52.420;20.896;2023-04-02T09:35:14;5.40;80.30
21189;DHT22;39071;52.420;20.896;2023-04-02T09:37:42;5.40;1.00
21189;DHT22;39071;52.420;20.896;2023-04-02T09:40:30;5.30;1.00
21189;DHT22;39071;52.420;20.896;2023-04-02T09:43:11;5.30;99.90
21189;DHT22;39071;52.420;20.896;2023-04-02T09:45:38;5.30;1.00
21189;DHT22;39071;52.420;20.896;2023-04-02T09:51:17;5.20;1.00
21189;DHT22;39071;52.420;20.896;2023-04-02T09:53:45;5.20;99.90
21189;DHT22;39071;52.420;20.896;2023-04-02T09:56:22;5.10;99.90
21189;DHT22;39071;52.420;20.896;2023-04-02T09:59:18;5.20;1.00
21189;DHT22;39071;52.420;20.896;2023-04-02T10:01:59;5.20;99.90
21189;DHT22;39071;52.420;20.896;2023-04-02T10:07:01;5.10;99.90
21189;DHT22;39071;52.420;20.896;2023-04-02T10:09:30;5.20;1.00
21189;DHT22;39071;52.420;20.896;2023-04-02T10:11:58;5.10;99.90
21189;DHT22;39071;52.420;20.896;2023-04-02T10:14:29;4.80;1.00
21189;DHT22;39071;52.420;20.896;2023-04-02T10:17:00;4.90;99.90
21189;DHT22;39071;52.420;20.896;2023-04-02T10:19:35;5.00;1.00
21189;DHT22;39071;52.420;20.896;2023-04-02T10:22:07;5.00;1.00
21189;DHT22;39071;52.420;20.896;2023-04-02T10:24:36;5.00;1.00
21189;DHT22;39071;52.420;20.896;2023-04-02T10:30:25;5.00;1.00
21189;DHT22;39071;52.420;20.896;2023-04-02T10:37:56;5.00;1.00
21189;DHT22;39071;52.420;20.896;2023-04-02T10:40:34;5.00;1.00
21189;DHT22;39071;52.420;20.896;2023-04-02T10:51:43;5.00;1.00
21189;DHT22;39071;52.420;20.896;2023-04-02T10:56:46;5.00;1.00
21189;DHT22;39071;52.420;20.896;2023-04-02T10:59:34;4.90;99.90
21189;DHT22;39071;52.420;20.896;2023-04-02T11:02:02;5.00;99.90
21189;DHT22;39071;52.420;20.896;2023-04-02T11:04:37;5.10;1.00
21189;DHT22;39071;52.420;20.896;2023-04-02T11:07:15;5.10;99.90
21189;DHT22;39071;52.420;20.896;2023-04-02T11:09:44;5.10;99.90
21189;DHT22;39071;52.420;20.896;2023-04-02T11:12:22;5.20;99.90
21189;DHT22;39071;52.420;20.896;2023-04-02T11:14:49;5.20;98.60
21189;DHT22;39071;52.420;20.896;2023-04-02T11:17:17;5.20;1.00
21189;DHT22;39071;52.420;20.896;2023-04-02T11:19:43;5.20;1.00
21189;DHT22;39071;52.420;20.896;2023-04-02T11:22:22;5.20;1.00
21189;DHT22;39071;52.420;20.896;2023-04-02T11:24:50;5.20;1.00
21189;DHT22;39071;52.420;20.896;2023-04-02T11:27:26;5.30;99.90
21189;DHT22;39071;52.420;20.896;2023-04-02T11:32:45;5.20;99.90
21189;DHT22;39071;52.420;20.896;2023-04-02T11:37:59;5.30;1.00
21189;DHT22;39071;52.420;20.896;2023-04-02T11:40:44;5.30;99.90
21189;DHT22;39071;52.420;20.896;2023-04-02T11:46:00;5.10;99.90
21189;DHT22;39071;52.420;20.896;2023-04-02T11:48:28;5.00;1.00
21189;DHT22;39071;52.420;20.896;2023-04-02T11:50:55;5.00;1.00
21189;DHT22;39071;52.420;20.896;2023-04-02T11:53:32;5.00;1.00
21189;DHT22;39071;52.420;20.896;2023-04-02T12:01:48;5.00;1.00
21189;DHT22;39071;52.420;20.896;2023-04-02T12:10:27;5.10;1.00
21189;DHT22;39071;52.420;20.896;2023-04-02T12:12:56;5.00;1.00
21189;DHT22;39071;52.420;20.896;2023-04-02T12:15:46;5.00;1.00
21189;DHT22;39071;52.420;20.896;2023-04-02T12:18:20;5.10;1.00
21189;DHT22;39071;52.420;20.896;2023-04-02T12:20:52;5.10;73.30
21189;DHT22;39071;52.420;20.896;2023-04-02T12:23:26;5.20;1.00
21189;DHT22;39071;52.420;20.896;2023-04-02T12:26:22;5.20;99.90
21189;DHT22;39071;52.420;20.896;2023-04-02T12:28:44;5.20;99.90
21189;DHT22;39071;52.420;20.896;2023-04-02T12:31:13;5.30;1.00
21189;DHT22;39071;52.420;20.896;2023-04-02T12:33:41;5.20;1.00
21189;DHT22;39071;52.420;20.896;2023-04-02T12:38:49;5.20;1.00
21189;DHT22;39071;52.420;20.896;2023-04-02T12:41:23;5.20;1.00
21189;DHT22;39071;52.420;20.896;2023-04-02T12:44:25;5.20;1.00
21189;DHT22;39071;52.420;20.896;2023-04-02T12:46:51;5.20;1.00
21189;DHT22;39071;52.420;20.896;2023-04-02T12:51:55;5.10;1.00
21189;DHT22;39071;52.420;20.896;2023-04-02T12:54:22;5.10;1.00
21189;DHT22;39071;52.420;20.896;2023-04-02T12:56:48;5.20;1.00
21189;DHT22;39071;52.420;20.896;2023-04-02T12:59:30;5.20;1.00
21189;DHT22;39071;52.420;20.896;2023-04-02T13:01:58;5.20;1.00
21189;DHT22;39071;52.420;20.896;2023-04-02T13:04:24;5.20;1.00
21189;DHT22;39071;52.420;20.896;2023-04-02T13:06:51;5.20;1.00
21189;DHT22;39071;52.420;20.896;2023-04-02T13:09:33;5.20;1.00
21189;DHT22;39071;52.420;20.896;2023-04-02T13:12:00;5.20;1.00
21189;DHT22;39071;52.420;20.896;2023-04-02T13:14:27;5.10;1.00
21189;DHT22;39071;52.420;20.896;2023-04-02T13:16:53;5.10;1.00
21189;DHT22;39071;52.420;20.896;2023-04-02T13:19:26;5.00;99.90
21189;DHT22;39071;52.420;20.896;2023-04-02T13:21:53;4.90;1.00
21189;DHT22;39071;52.420;20.896;2023-04-02T13:24:25;4.80;1.00
21189;DHT22;39071;52.420;20.896;2023-04-02T13:26:59;4.80;99.90
21189;DHT22;39071;52.420;20.896;2023-04-02T13:29:28;4.80;99.90
21189;DHT22;39071;52.420;20.896;2023-04-02T13:31:58;4.90;1.00
21189;DHT22;39071;52.420;20.896;2023-04-02T13:34:24;4.90;82.60
21189;DHT22;39071;52.420;20.896;2023-04-02T13:36:51;4.80;1.00
21189;DHT22;39071;52.420;20.896;2023-04-02T13:39:17;4.90;1.00
21189;DHT22;39071;52.420;20.896;2023-04-02T13:41:51;4.80;1.00
21189;DHT22;39071;52.420;20.896;2023-04-02T13:44:20;4.80;99.90
21189;DHT22;39071;52.420;20.896;2023-04-02T13:46:47;4.80;99.90
21189;DHT22;39071;52.420;20.896;2023-04-02T13:49:13;4.60;99.90
21189;DHT22;39071;52.420;20.896;2023-04-02T13:51:47;4.60;1.00
21189;DHT22;39071;52.420;20.896;2023-04-02T13:54:26;4.50;1.00
21189;DHT22;39071;52.420;20.896;2023-04-02T13:56:54;4.50;1.00
21189;DHT22;39071;52.420;20.896;2023-04-02T13:59:23;4.60;1.00
21189;DHT22;39071;52.420;20.896;2023-04-02T14:01:51;4.30;1.00
21189;DHT22;39071;52.420;20.896;2023-04-02T14:04:22;4.50;1.00
21189;DHT22;39071;52.420;20.896;2023-04-02T14:09:54;4.40;1.00
21189;DHT22;39071;52.420;20.896;2023-04-02T14:18:31;4.30;1.00
21189;DHT22;39071;52.420;20.896;2023-04-02T14:21:23;4.30;1.00
21189;DHT22;39071;52.420;20.896;2023-04-02T14:24:13;4.30;1.00
21189;DHT22;39071;52.420;20.896;2023-04-02T14:32:25;4.30;1.00
21189;DHT22;39071;52.420;20.896;2023-04-02T14:35:14;4.20;1.00
21189;DHT22;39071;52.420;20.896;2023-04-02T14:38:00;4.10;1.00
21189;DHT22;39071;52.420;20.896;2023-04-02T14:40:46;4.00;1.00
21189;DHT22;39071;52.420;20.896;2023-04-02T14:43:19;4.00;36.60
21189;DHT22;39071;52.420;20.896;2023-04-02T14:54:08;4.10;99.90
21189;DHT22;39071;52.420;20.896;2023-04-02T14:56:46;4.00;99.90
21189;DHT22;39071;52.420;20.896;2023-04-02T15:02:02;4.00;99.90
21189;DHT22;39071;52.420;20.896;2023-04-02T15:04:36;4.00;99.90
21189;DHT22;39071;52.420;20.896;2023-04-02T15:07:11;4.00;99.90
21189;DHT22;39071;52.420;20.896;2023-04-02T15:09:46;4.00;99.90
21189;DHT22;39071;52.420;20.896;2023-04-02T15:12:23;4.00;99.90
21189;DHT22;39071;52.420;20.896;2023-04-02T15:15:41;4.00;99.90
21189;DHT22;39071;52.420;20.896;2023-04-02T15:17:40;4.00;99.90
21189;DHT22;39071;52.420;20.896;2023-04-02T15:20:17;4.00;99.90
21189;DHT22;39071;52.420;20.896;2023-04-02T15:23:08;3.90;99.90
21189;DHT22;39071;52.420;20.896;2023-04-02T15:25:46;3.90;99.90
21189;DHT22;39071;52.420;20.896;2023-04-02T15:28:30;3.90;99.90
21189;DHT22;39071;52.420;20.896;2023-04-02T15:31:03;3.90;99.90
21189;DHT22;39071;52.420;20.896;2023-04-02T15:33:43;3.90;99.90
21189;DHT22;39071;52.420;20.896;2023-04-02T15:36:28;3.90;99.90
21189;DHT22;39071;52.420;20.896;2023-04-02T15:39:08;3.90;99.90
21189;DHT22;39071;52.420;20.896;2023-04-02T15:42:13;4.00;99.90
21189;DHT22;39071;52.420;20.896;2023-04-02T15:44:54;3.90;99.90
21189;DHT22;39071;52.420;20.896;2023-04-02T15:47:25;4.00;99.90
21189;DHT22;39071;52.420;20.896;2023-04-02T15:52:57;3.90;99.90
21189;DHT22;39071;52.420;20.896;2023-04-02T15:55:35;3.90;99.90
21189;DHT22;39071;52.420;20.896;2023-04-02T16:01:39;3.80;99.90
21189;DHT22;39071;52.420;20.896;2023-04-02T16:04:17;3.80;99.90
21189;DHT22;39071;52.420;20.896;2023-04-02T16:21:32;4.20;99.90
21189;DHT22;39071;52.420;20.896;2023-04-02T16:23:59;4.30;99.90
21189;DHT22;39071;52.420;20.896;2023-04-02T16:29:12;4.50;99.90
21189;DHT22;39071;52.420;20.896;2023-04-02T16:35:02;4.60;99.90
21189;DHT22;39071;52.420;20.896;2023-04-02T16:40:57;4.70;99.90
21189;DHT22;39071;52.420;20.896;2023-04-02T16:43:26;4.60;99.90
21189;DHT22;39071;52.420;20.896;2023-04-02T16:49:03;4.50;24.90
21189;DHT22;39071;52.420;20.896;2023-04-02T16:54:56;4.60;99.90
21189;DHT22;39071;52.420;20.896;2023-04-02T16:57:27;4.70;99.90
21189;DHT22;39071;52.420;20.896;2023-04-02T17:00:11;4.80;99.90
21189;DHT22;39071;52.420;20.896;2023-04-02T17:05:57;4.90;1.00
21189;DHT22;39071;52.420;20.896;2023-04-02T17:08:41;4.90;1.00
21189;DHT22;39071;52.420;20.896;2023-04-02T17:11:15;4.90;1.00
21189;DHT22;39071;52.420;20.896;2023-04-02T17:13:46;5.00;1.00
21189;DHT22;39071;52.420;20.896;2023-04-02T17:16:22;4.80;1.00
21189;DHT22;39071;52.420;20.896;2023-04-02T17:18:52;4.70;1.00
21189;DHT22;39071;52.420;20.896;2023-04-02T17:21:26;4.60;1.00
21189;DHT22;39071;52.420;20.896;2023-04-02T17:24:04;4.60;1.00
21189;DHT22;39071;52.420;20.896;2023-04-02T17:26:33;4.70;1.00
21189;DHT22;39071;52.420;20.896;2023-04-02T17:29:06;4.60;1.00
21189;DHT22;39071;52.420;20.896;2023-04-02T17:31:33;4.60;1.00
21189;DHT22;39071;52.420;20.896;2023-04-02T17:34:13;4.60;1.00
21189;DHT22;39071;52.420;20.896;2023-04-02T17:37:15;4.60;99.90
21189;DHT22;39071;52.420;20.896;2023-04-02T17:39:54;4.70;99.90
21189;DHT22;39071;52.420;20.896;2023-04-02T17:45:31;4.70;99.90
21189;DHT22;39071;52.420;20.896;2023-04-02T17:56:41;4.80;99.90
21189;DHT22;39071;52.420;20.896;2023-04-02T17:59:39;4.90;1.00
21189;DHT22;39071;52.420;20.896;2023-04-02T18:05:24;4.90;1.00
21189;DHT22;39071;52.420;20.896;2023-04-02T18:11:02;5.00;1.00
21189;DHT22;39071;52.420;20.896;2023-04-02T18:13:34;5.10;1.00
21189;DHT22;39071;52.420;20.896;2023-04-02T18:21:18;5.20;99.90
21189;DHT22;39071;52.420;20.896;2023-04-02T18:40:33;5.10;1.00
21189;DHT22;39071;52.420;20.896;2023-04-02T18:43:46;5.10;1.00
21189;DHT22;39071;52.420;20.896;2023-04-02T18:46:22;5.10;1.00
21189;DHT22;39071;52.420;20.896;2023-04-02T18:49:03;5.10;1.80
21189;DHT22;39071;52.420;20.896;2023-04-02T18:51:36;5.10;99.90
21189;DHT22;39071;52.420;20.896;2023-04-02T18:56:37;5.10;1.00
21189;DHT22;39071;52.420;20.896;2023-04-02T18:59:40;5.00;1.00
21189;DHT22;39071;52.420;20.896;2023-04-02T19:02:29;5.00;99.90
21189;DHT22;39071;52.420;20.896;2023-04-02T19:05:02;4.90;99.90
21189;DHT22;39071;52.420;20.896;2023-04-02T19:07:33;4.90;1.00
21189;DHT22;39071;52.420;20.896;2023-04-02T19:10:12;4.80;1.00
21189;DHT22;39071;52.420;20.896;2023-04-02T19:12:46;4.80;99.90
21189;DHT22;39071;52.420;20.896;2023-04-02T19:15:16;4.70;1.00
21189;DHT22;39071;52.420;20.896;2023-04-02T19:17:47;4.70;1.00
21189;DHT22;39071;52.420;20.896;2023-04-02T19:20:45;4.70;1.00
21189;DHT22;39071;52.420;20.896;2023-04-02T19:26:09;4.70;99.90
21189;DHT22;39071;52.420;20.896;2023-04-02T19:31:48;4.60;1.00
21189;DHT22;39071;52.420;20.896;2023-04-02T19:37:30;4.70;99.90
21189;DHT22;39071;52.420;20.896;2023-04-02T19:42:41;4.70;99.90
21189;DHT22;39071;52.420;20.896;2023-04-02T19:45:40;4.60;1.00
21189;DHT22;39071;52.420;20.896;2023-04-02T19:50:36;4.80;1.00
21189;DHT22;39071;52.420;20.896;2023-04-02T19:53:02;4.80;1.00
21189;DHT22;39071;52.420;20.896;2023-04-02T19:55:27;4.80;1.00
21189;DHT22;39071;52.420;20.896;2023-04-02T19:57:54;4.80;99.90
21189;DHT22;39071;52.420;20.896;2023-04-02T20:00:20;4.80;99.90
21189;DHT22;39071;52.420;20.896;2023-04-02T20:02:46;4.80;99.90
21189;DHT22;39071;52.420;20.896;2023-04-02T20:05:12;4.70;1.00
21189;DHT22;39071;52.420;20.896;2023-04-02T20:07:38;4.70;1.00
21189;DHT22;39071;52.420;20.896;2023-04-02T20:10:04;4.60;99.90
21189;DHT22;39071;52.420;20.896;2023-04-02T20:12:30;4.70;99.90
21189;DHT22;39071;52.420;20.896;2023-04-02T20:14:56;4.70;1.00
21189;DHT22;39071;52.420;20.896;2023-04-02T20:17:22;4.70;1.00
21189;DHT22;39071;52.420;20.896;2023-04-02T20:19:47;4.60;95.80
21189;DHT22;39071;52.420;20.896;2023-04-02T20:22:13;4.70;99.90
21189;DHT22;39071;52.420;20.896;2023-04-02T20:24:39;4.60;1.00
21189;DHT22;39071;52.420;20.896;2023-04-02T20:27:07;4.70;69.30
21189;DHT22;39071;52.420;20.896;2023-04-02T20:29:33;4.70;99.90
21189;DHT22;39071;52.420;20.896;2023-04-02T20:31:58;4.70;1.00
21189;DHT22;39071;52.420;20.896;2023-04-02T20:34:24;4.60;1.00